sensor_id;sensor_type;location;lat;lon;timestamp;P1;durP1;ratioP1;P2;durP2;ratioP2
11642;SDS011;5877;50.930;6.918;2022-12-18T00:02:46;14.70;;;8.07;;
11642;SDS011;5877;50.930;6.918;2022-12-18T00:07:38;11.73;;;7.97;;
11642;SDS011;5877;50.930;6.918;2022-12-18T00:12:31;14.20;;;8.87;;
11642;SDS011;5877;50.930;6.918;2022-12-18T00:17:23;16.13;;;8.40;;
11642;SDS011;5877;50.930;6.918;2022-12-18T00:22:15;13.23;;;7.43;;
11642;SDS011;5877;50.930;6.918;2022-12-18T00:27:06;13.87;;;8.50;;
11642;SDS011;5877;50.930;6.918;2022-12-18T00:31:58;15.10;;;7.50;;
11642;SDS011;5877;50.930;6.918;2022-12-18T00:36:50;14.50;;;8.47;;
11642;SDS011;5877;50.930;6.918;2022-12-18T00:41:42;16.00;;;8.47;;
11642;SDS011;5877;50.930;6.918;2022-12-18T00:46:54;14.70;;;8.23;;
11642;SDS011;5877;50.930;6.918;2022-12-18T00:51:46;11.90;;;7.93;;
11642;SDS011;5877;50.930;6.918;2022-12-18T00:56:39;14.03;;;8.60;;
11642;SDS011;5877;50.930;6.918;2022-12-18T01:01:40;13.03;;;8.17;;
11642;SDS011;5877;50.930;6.918;2022-12-18T01:06:32;15.50;;;8.77;;
11642;SDS011;5877;50.930;6.918;2022-12-18T01:11:24;14.57;;;7.03;;
11642;SDS011;5877;50.930;6.918;2022-12-18T01:16:17;17.83;;;9.97;;
11642;SDS011;5877;50.930;6.918;2022-12-18T01:21:10;12.47;;;7.23;;
11642;SDS011;5877;50.930;6.918;2022-12-18T01:26:07;13.37;;;8.10;;
11642;SDS011;5877;50.930;6.918;2022-12-18T01:36:07;15.30;;;8.23;;
11642;SDS011;5877;50.930;6.918;2022-12-18T01:41:05;14.57;;;8.17;;
11642;SDS011;5877;50.930;6.918;2022-12-18T01:45:58;12.03;;;7.57;;
11642;SDS011;5877;50.930;6.918;2022-12-18T01:50:51;15.23;;;8.00;;
11642;SDS011;5877;50.930;6.918;2022-12-18T01:55:44;13.20;;;7.77;;
11642;SDS011;5877;50.930;6.918;2022-12-18T02:00:38;13.40;;;7.90;;
11642;SDS011;5877;50.930;6.918;2022-12-18T02:26:06;15.47;;;9.00;;
11642;SDS011;5877;50.930;6.918;2022-12-18T02:31:02;13.40;;;8.63;;
11642;SDS011;5877;50.930;6.918;2022-12-18T02:35:58;14.70;;;8.83;;
11642;SDS011;5877;50.930;6.918;2022-12-18T02:40:52;14.67;;;9.03;;
11642;SDS011;5877;50.930;6.918;2022-12-18T02:45:47;13.13;;;8.30;;
11642;SDS011;5877;50.930;6.918;2022-12-18T02:50:45;14.80;;;9.27;;
11642;SDS011;5877;50.930;6.918;2022-12-18T03:06:43;13.60;;;8.00;;
11642;SDS011;5877;50.930;6.918;2022-12-18T03:11:19;12.33;;;8.10;;
11642;SDS011;5877;50.930;6.918;2022-12-18T03:16:31;13.83;;;8.77;;
11642;SDS011;5877;50.930;6.918;2022-12-18T03:21:33;14.33;;;8.20;;
11642;SDS011;5877;50.930;6.918;2022-12-18T03:26:31;14.33;;;8.63;;
11642;SDS011;5877;50.930;6.918;2022-12-18T03:31:26;16.43;;;9.50;;
11642;SDS011;5877;50.930;6.918;2022-12-18T03:36:22;15.83;;;8.53;;
11642;SDS011;5877;50.930;6.918;2022-12-18T03:46:58;14.33;;;8.23;;
11642;SDS011;5877;50.930;6.918;2022-12-18T03:52:09;11.23;;;6.67;;
11642;SDS011;5877;50.930;6.918;2022-12-18T03:57:08;15.57;;;9.03;;
11642;SDS011;5877;50.930;6.918;2022-12-18T04:02:05;15.57;;;8.77;;
11642;SDS011;5877;50.930;6.918;2022-12-18T04:07:00;16.03;;;8.87;;
11642;SDS011;5877;50.930;6.918;2022-12-18T04:11:52;15.50;;;9.60;;
11642;SDS011;5877;50.930;6.918;2022-12-18T04:16:44;13.93;;;8.43;;
11642;SDS011;5877;50.930;6.918;2022-12-18T04:21:39;17.63;;;8.37;;
11642;SDS011;5877;50.930;6.918;2022-12-18T04:26:33;16.20;;;9.20;;
11642;SDS011;5877;50.930;6.918;2022-12-18T04:31:45;14.53;;;8.70;;
11642;SDS011;5877;50.930;6.918;2022-12-18T04:36:37;15.17;;;9.70;;
11642;SDS011;5877;50.930;6.918;2022-12-18T04:41:29;19.90;;;8.53;;
11642;SDS011;5877;50.930;6.918;2022-12-18T04:46:22;12.53;;;8.03;;
11642;SDS011;5877;50.930;6.918;2022-12-18T04:51:13;16.10;;;10.10;;
11642;SDS011;5877;50.930;6.918;2022-12-18T04:56:06;21.03;;;10.67;;
11642;SDS011;5877;50.930;6.918;2022-12-18T05:01:02;16.23;;;9.47;;
11642;SDS011;5877;50.930;6.918;2022-12-18T05:05:54;15.73;;;9.37;;
11642;SDS011;5877;50.930;6.918;2022-12-18T05:10:46;16.67;;;9.53;;
11642;SDS011;5877;50.930;6.918;2022-12-18T05:15:38;21.67;;;10.63;;
11642;SDS011;5877;50.930;6.918;2022-12-18T05:20:30;17.87;;;9.73;;
11642;SDS011;5877;50.930;6.918;2022-12-18T05:25:23;15.87;;;9.93;;
11642;SDS011;5877;50.930;6.918;2022-12-18T05:30:16;15.93;;;9.27;;
11642;SDS011;5877;50.930;6.918;2022-12-18T05:35:09;17.07;;;9.17;;
11642;SDS011;5877;50.930;6.918;2022-12-18T05:40:02;15.60;;;9.53;;
11642;SDS011;5877;50.930;6.918;2022-12-18T05:44:55;16.63;;;9.90;;
11642;SDS011;5877;50.930;6.918;2022-12-18T05:49:46;15.60;;;9.67;;
11642;SDS011;5877;50.930;6.918;2022-12-18T05:54:39;17.80;;;10.03;;
11642;SDS011;5877;50.930;6.918;2022-12-18T05:59:30;13.47;;;8.23;;
11642;SDS011;5877;50.930;6.918;2022-12-18T06:04:22;18.63;;;10.20;;
11642;SDS011;5877;50.930;6.918;2022-12-18T06:09:14;14.90;;;9.20;;
11642;SDS011;5877;50.930;6.918;2022-12-18T06:14:08;20.30;;;9.57;;
11642;SDS011;5877;50.930;6.918;2022-12-18T06:19:01;17.47;;;10.47;;
11642;SDS011;5877;50.930;6.918;2022-12-18T06:23:55;16.53;;;10.03;;
11642;SDS011;5877;50.930;6.918;2022-12-18T06:28:47;17.83;;;10.60;;
11642;SDS011;5877;50.930;6.918;2022-12-18T06:33:39;17.37;;;9.97;;
11642;SDS011;5877;50.930;6.918;2022-12-18T06:38:32;16.10;;;9.73;;
11642;SDS011;5877;50.930;6.918;2022-12-18T06:43:26;17.27;;;10.13;;
11642;SDS011;5877;50.930;6.918;2022-12-18T06:48:19;19.13;;;10.57;;
11642;SDS011;5877;50.930;6.918;2022-12-18T06:53:11;16.60;;;10.47;;
11642;SDS011;5877;50.930;6.918;2022-12-18T06:58:03;19.07;;;10.10;;
11642;SDS011;5877;50.930;6.918;2022-12-18T07:02:55;19.63;;;11.10;;
11642;SDS011;5877;50.930;6.918;2022-12-18T07:07:47;16.53;;;9.83;;
11642;SDS011;5877;50.930;6.918;2022-12-18T07:12:39;20.27;;;9.33;;
11642;SDS011;5877;50.930;6.918;2022-12-18T07:17:30;18.90;;;10.83;;
11642;SDS011;5877;50.930;6.918;2022-12-18T07:22:22;18.43;;;11.03;;
11642;SDS011;5877;50.930;6.918;2022-12-18T07:27:16;18.53;;;10.83;;
11642;SDS011;5877;50.930;6.918;2022-12-18T07:32:08;16.53;;;9.93;;
11642;SDS011;5877;50.930;6.918;2022-12-18T07:37:00;15.43;;;10.20;;
11642;SDS011;5877;50.930;6.918;2022-12-18T07:41:52;18.27;;;9.90;;
11642;SDS011;5877;50.930;6.918;2022-12-18T07:47:04;20.30;;;10.87;;
11642;SDS011;5877;50.930;6.918;2022-12-18T07:52:02;18.37;;;9.80;;
11642;SDS011;5877;50.930;6.918;2022-12-18T07:56:54;16.50;;;9.80;;
11642;SDS011;5877;50.930;6.918;2022-12-18T08:01:45;16.03;;;9.27;;
11642;SDS011;5877;50.930;6.918;2022-12-18T08:06:37;18.73;;;10.03;;
11642;SDS011;5877;50.930;6.918;2022-12-18T08:11:31;20.30;;;9.83;;
11642;SDS011;5877;50.930;6.918;2022-12-18T08:16:24;15.80;;;10.43;;
11642;SDS011;5877;50.930;6.918;2022-12-18T08:21:20;18.23;;;10.37;;
11642;SDS011;5877;50.930;6.918;2022-12-18T08:26:14;20.70;;;10.93;;
11642;SDS011;5877;50.930;6.918;2022-12-18T08:31:06;16.87;;;10.83;;
11642;SDS011;5877;50.930;6.918;2022-12-18T08:35:59;19.77;;;11.47;;
11642;SDS011;5877;50.930;6.918;2022-12-18T08:41:01;17.17;;;11.03;;
11642;SDS011;5877;50.930;6.918;2022-12-18T08:45:57;14.27;;;9.90;;
11642;SDS011;5877;50.930;6.918;2022-12-18T08:50:59;18.53;;;11.33;;
11642;SDS011;5877;50.930;6.918;2022-12-18T08:55:52;20.43;;;10.57;;
11642;SDS011;5877;50.930;6.918;2022-12-18T09:00:44;16.20;;;10.43;;
11642;SDS011;5877;50.930;6.918;2022-12-18T09:05:36;17.57;;;11.13;;
11642;SDS011;5877;50.930;6.918;2022-12-18T09:10:28;15.67;;;10.50;;
11642;SDS011;5877;50.930;6.918;2022-12-18T09:15:19;17.53;;;10.60;;
11642;SDS011;5877;50.930;6.918;2022-12-18T09:20:12;20.57;;;11.63;;
11642;SDS011;5877;50.930;6.918;2022-12-18T09:25:04;16.23;;;10.90;;
11642;SDS011;5877;50.930;6.918;2022-12-18T09:29:59;20.57;;;11.27;;
11642;SDS011;5877;50.930;6.918;2022-12-18T09:34:51;16.77;;;10.70;;
11642;SDS011;5877;50.930;6.918;2022-12-18T09:39:42;16.97;;;11.13;;
11642;SDS011;5877;50.930;6.918;2022-12-18T09:44:36;15.93;;;10.37;;
11642;SDS011;5877;50.930;6.918;2022-12-18T09:49:43;19.70;;;10.87;;
11642;SDS011;5877;50.930;6.918;2022-12-18T09:54:59;19.60;;;10.63;;
11642;SDS011;5877;50.930;6.918;2022-12-18T09:59:58;17.37;;;10.70;;
11642;SDS011;5877;50.930;6.918;2022-12-18T10:05:02;19.07;;;11.53;;
11642;SDS011;5877;50.930;6.918;2022-12-18T10:10:06;20.77;;;10.37;;
11642;SDS011;5877;50.930;6.918;2022-12-18T10:25:30;17.73;;;11.00;;
11642;SDS011;5877;50.930;6.918;2022-12-18T10:30:25;17.93;;;11.00;;
11642;SDS011;5877;50.930;6.918;2022-12-18T10:35:19;19.10;;;12.17;;
11642;SDS011;5877;50.930;6.918;2022-12-18T10:40:16;19.37;;;11.13;;
11642;SDS011;5877;50.930;6.918;2022-12-18T10:45:14;17.27;;;10.83;;
11642;SDS011;5877;50.930;6.918;2022-12-18T10:55:50;16.07;;;9.87;;
11642;SDS011;5877;50.930;6.918;2022-12-18T11:00:45;20.17;;;10.93;;
11642;SDS011;5877;50.930;6.918;2022-12-18T11:11:17;19.17;;;10.53;;
11642;SDS011;5877;50.930;6.918;2022-12-18T11:16:18;18.70;;;11.10;;
11642;SDS011;5877;50.930;6.918;2022-12-18T11:21:11;18.33;;;11.40;;
11642;SDS011;5877;50.930;6.918;2022-12-18T11:26:05;20.07;;;11.63;;
11642;SDS011;5877;50.930;6.918;2022-12-18T11:36:19;17.50;;;10.80;;
11642;SDS011;5877;50.930;6.918;2022-12-18T11:41:32;16.60;;;11.50;;
11642;SDS011;5877;50.930;6.918;2022-12-18T11:47:14;16.87;;;10.90;;
11642;SDS011;5877;50.930;6.918;2022-12-18T11:52:26;18.03;;;11.47;;
11642;SDS011;5877;50.930;6.918;2022-12-18T12:17:57;19.03;;;12.43;;
11642;SDS011;5877;50.930;6.918;2022-12-18T12:39:01;20.13;;;11.30;;
11642;SDS011;5877;50.930;6.918;2022-12-18T12:44:01;20.63;;;12.00;;
11642;SDS011;5877;50.930;6.918;2022-12-18T12:49:02;19.97;;;12.50;;
11642;SDS011;5877;50.930;6.918;2022-12-18T12:53:56;18.43;;;11.67;;
11642;SDS011;5877;50.930;6.918;2022-12-18T12:59:35;21.77;;;12.67;;
11642;SDS011;5877;50.930;6.918;2022-12-18T13:04:17;22.00;;;13.17;;
11642;SDS011;5877;50.930;6.918;2022-12-18T13:09:29;19.57;;;12.73;;
11642;SDS011;5877;50.930;6.918;2022-12-18T13:14:29;19.67;;;13.30;;
11642;SDS011;5877;50.930;6.918;2022-12-18T13:19:23;24.43;;;13.53;;
11642;SDS011;5877;50.930;6.918;2022-12-18T13:24:22;21.00;;;12.83;;
11642;SDS011;5877;50.930;6.918;2022-12-18T13:34:38;23.23;;;14.27;;
11642;SDS011;5877;50.930;6.918;2022-12-18T13:39:33;19.67;;;13.30;;
11642;SDS011;5877;50.930;6.918;2022-12-18T13:44:40;19.27;;;13.40;;
11642;SDS011;5877;50.930;6.918;2022-12-18T13:49:40;19.90;;;12.90;;
11642;SDS011;5877;50.930;6.918;2022-12-18T23:24:58;34.53;;;20.50;;
11642;SDS011;5877;50.930;6.918;2022-12-18T23:29:50;32.63;;;19.63;;
11642;SDS011;5877;50.930;6.918;2022-12-18T23:34:44;33.07;;;19.93;;
11642;SDS011;5877;50.930;6.918;2022-12-18T23:39:37;33.47;;;20.00;;
11642;SDS011;5877;50.930;6.918;2022-12-18T23:44:29;33.50;;;19.40;;
11642;SDS011;5877;50.930;6.918;2022-12-18T23:49:21;35.13;;;21.03;;
11642;SDS011;5877;50.930;6.918;2022-12-18T23:54:13;34.53;;;20.07;;
11642;SDS011;5877;50.930;6.918;2022-12-18T23:59:05;33.00;;;19.20;;
